sensor_id;sensor_type;location;lat;lon;timestamp;P1;durP1;ratioP1;P2;durP2;ratioP2
38487;SDS011;57384;51.986;4.458;2024-02-23T00:01:41;3.88;;;3.78;;
38487;SDS011;57384;51.986;4.458;2024-02-23T00:04:36;4.75;;;4.45;;
38487;SDS011;57384;51.986;4.458;2024-02-23T00:07:29;2.50;;;2.40;;
38487;SDS011;57384;51.986;4.458;2024-02-23T00:10:19;3.50;;;3.40;;
38487;SDS011;57384;51.986;4.458;2024-02-23T00:13:03;4.40;;;4.03;;
38487;SDS011;57384;51.986;4.458;2024-02-23T00:15:56;3.50;;;3.40;;
38487;SDS011;57384;51.986;4.458;2024-02-23T00:18:59;4.00;;;3.90;;
38487;SDS011;57384;51.986;4.458;2024-02-23T00:21:48;3.80;;;3.67;;
38487;SDS011;57384;51.986;4.458;2024-02-23T00:24:38;3.10;;;3.00;;
38487;SDS011;57384;51.986;4.458;2024-02-23T00:27:37;3.40;;;3.30;;
38487;SDS011;57384;51.986;4.458;2024-02-23T00:30:21;3.35;;;3.25;;
38487;SDS011;57384;51.986;4.458;2024-02-23T00:33:08;4.13;;;4.03;;
38487;SDS011;57384;51.986;4.458;2024-02-23T00:35:53;3.60;;;3.50;;
38487;SDS011;57384;51.986;4.458;2024-02-23T00:38:37;5.45;;;5.15;;
38487;SDS011;57384;51.986;4.458;2024-02-23T00:41:21;3.53;;;3.42;;
38487;SDS011;57384;51.986;4.458;2024-02-23T00:44:08;4.00;;;3.90;;
38487;SDS011;57384;51.986;4.458;2024-02-23T00:46:53;3.40;;;3.30;;
38487;SDS011;57384;51.986;4.458;2024-02-23T00:49:40;3.63;;;3.53;;
38487;SDS011;57384;51.986;4.458;2024-02-23T00:52:24;3.47;;;3.38;;
38487;SDS011;57384;51.986;4.458;2024-02-23T00:55:08;3.17;;;3.08;;
38487;SDS011;57384;51.986;4.458;2024-02-23T00:57:52;2.83;;;2.72;;
38487;SDS011;57384;51.986;4.458;2024-02-23T01:00:39;4.30;;;4.10;;
38487;SDS011;57384;51.986;4.458;2024-02-23T01:03:25;3.67;;;3.58;;
38487;SDS011;57384;51.986;4.458;2024-02-23T01:06:11;7.30;;;4.95;;
38487;SDS011;57384;51.986;4.458;2024-02-23T01:08:55;5.57;;;5.25;;
38487;SDS011;57384;51.986;4.458;2024-02-23T01:11:39;3.75;;;3.60;;
38487;SDS011;57384;51.986;4.458;2024-02-23T01:14:24;3.83;;;3.63;;
38487;SDS011;57384;51.986;4.458;2024-02-23T01:17:08;3.15;;;3.05;;
38487;SDS011;57384;51.986;4.458;2024-02-23T01:19:53;4.20;;;4.00;;
38487;SDS011;57384;51.986;4.458;2024-02-23T01:22:37;4.07;;;3.97;;
38487;SDS011;57384;51.986;4.458;2024-02-23T01:25:21;3.97;;;3.88;;
38487;SDS011;57384;51.986;4.458;2024-02-23T01:28:11;4.05;;;3.95;;
38487;SDS011;57384;51.986;4.458;2024-02-23T01:30:55;4.03;;;3.92;;
38487;SDS011;57384;51.986;4.458;2024-02-23T01:33:40;4.90;;;3.80;;
38487;SDS011;57384;51.986;4.458;2024-02-23T01:36:25;4.82;;;4.53;;
38487;SDS011;57384;51.986;4.458;2024-02-23T01:39:13;3.83;;;3.72;;
38487;SDS011;57384;51.986;4.458;2024-02-23T01:42:00;3.58;;;3.47;;
38487;SDS011;57384;51.986;4.458;2024-02-23T01:44:48;5.40;;;5.03;;
38487;SDS011;57384;51.986;4.458;2024-02-23T01:47:35;3.65;;;3.55;;
38487;SDS011;57384;51.986;4.458;2024-02-23T01:50:22;2.85;;;2.75;;
38487;SDS011;57384;51.986;4.458;2024-02-23T01:53:16;3.72;;;3.60;;
38487;SDS011;57384;51.986;4.458;2024-02-23T01:56:03;3.42;;;3.33;;
38487;SDS011;57384;51.986;4.458;2024-02-23T01:58:48;4.70;;;4.22;;
38487;SDS011;57384;51.986;4.458;2024-02-23T02:01:40;3.90;;;3.80;;
38487;SDS011;57384;51.986;4.458;2024-02-23T02:07:14;3.60;;;3.50;;
38487;SDS011;57384;51.986;4.458;2024-02-23T02:10:08;3.10;;;3.00;;
38487;SDS011;57384;51.986;4.458;2024-02-23T02:12:53;3.28;;;3.17;;
38487;SDS011;57384;51.986;4.458;2024-02-23T02:15:42;12.32;;;4.13;;
38487;SDS011;57384;51.986;4.458;2024-02-23T02:18:29;3.17;;;3.08;;
38487;SDS011;57384;51.986;4.458;2024-02-23T02:21:22;4.65;;;4.40;;
38487;SDS011;57384;51.986;4.458;2024-02-23T02:24:10;3.25;;;3.15;;
38487;SDS011;57384;51.986;4.458;2024-02-23T02:27:02;3.28;;;3.17;;
38487;SDS011;57384;51.986;4.458;2024-02-23T02:29:49;4.55;;;4.35;;
38487;SDS011;57384;51.986;4.458;2024-02-23T02:32:37;4.22;;;4.05;;
38487;SDS011;57384;51.986;4.458;2024-02-23T02:35:37;3.30;;;3.20;;
38487;SDS011;57384;51.986;4.458;2024-02-23T02:38:27;5.53;;;4.85;;
38487;SDS011;57384;51.986;4.458;2024-02-23T02:41:11;3.58;;;3.47;;
38487;SDS011;57384;51.986;4.458;2024-02-23T02:43:56;3.55;;;3.45;;
38487;SDS011;57384;51.986;4.458;2024-02-23T02:46:48;4.05;;;3.95;;
38487;SDS011;57384;51.986;4.458;2024-02-23T02:49:35;3.55;;;3.45;;
38487;SDS011;57384;51.986;4.458;2024-02-23T02:52:19;5.03;;;4.75;;
38487;SDS011;57384;51.986;4.458;2024-02-23T02:55:06;5.45;;;5.15;;
38487;SDS011;57384;51.986;4.458;2024-02-23T02:57:50;7.90;;;2.95;;
38487;SDS011;57384;51.986;4.458;2024-02-23T03:00:34;3.25;;;3.15;;
38487;SDS011;57384;51.986;4.458;2024-02-23T03:03:18;4.05;;;3.95;;
38487;SDS011;57384;51.986;4.458;2024-02-23T03:06:06;5.70;;;5.35;;
38487;SDS011;57384;51.986;4.458;2024-02-23T03:08:52;4.88;;;4.68;;
38487;SDS011;57384;51.986;4.458;2024-02-23T03:11:37;4.82;;;4.53;;
38487;SDS011;57384;51.986;4.458;2024-02-23T03:14:21;4.30;;;4.10;;
38487;SDS011;57384;51.986;4.458;2024-02-23T03:17:06;3.45;;;3.35;;
38487;SDS011;57384;51.986;4.458;2024-02-23T03:19:54;3.55;;;3.45;;
38487;SDS011;57384;51.986;4.458;2024-02-23T03:22:38;4.15;;;4.05;;
38487;SDS011;57384;51.986;4.458;2024-02-23T03:25:23;4.72;;;4.55;;
38487;SDS011;57384;51.986;4.458;2024-02-23T03:28:09;4.30;;;4.10;;
38487;SDS011;57384;51.986;4.458;2024-02-23T03:30:54;4.22;;;4.13;;
38487;SDS011;57384;51.986;4.458;2024-02-23T03:33:40;3.67;;;3.58;;
38487;SDS011;57384;51.986;4.458;2024-02-23T03:36:27;3.78;;;3.67;;
38487;SDS011;57384;51.986;4.458;2024-02-23T03:39:11;3.88;;;3.78;;
38487;SDS011;57384;51.986;4.458;2024-02-23T03:41:55;3.67;;;3.58;;
38487;SDS011;57384;51.986;4.458;2024-02-23T03:44:43;4.32;;;4.22;;
38487;SDS011;57384;51.986;4.458;2024-02-23T03:50:25;4.25;;;4.15;;
38487;SDS011;57384;51.986;4.458;2024-02-23T03:53:12;3.97;;;3.75;;
38487;SDS011;57384;51.986;4.458;2024-02-23T03:56:03;4.68;;;4.47;;
38487;SDS011;57384;51.986;4.458;2024-02-23T03:58:50;4.28;;;4.18;;
38487;SDS011;57384;51.986;4.458;2024-02-23T04:01:44;3.58;;;3.47;;
38487;SDS011;57384;51.986;4.458;2024-02-23T04:04:28;4.30;;;4.20;;
38487;SDS011;57384;51.986;4.458;2024-02-23T04:07:13;3.20;;;3.10;;
38487;SDS011;57384;51.986;4.458;2024-02-23T04:09:58;3.90;;;3.80;;
38487;SDS011;57384;51.986;4.458;2024-02-23T04:12:42;3.55;;;3.45;;
38487;SDS011;57384;51.986;4.458;2024-02-23T04:15:29;4.32;;;4.20;;
38487;SDS011;57384;51.986;4.458;2024-02-23T04:18:13;4.13;;;4.03;;
38487;SDS011;57384;51.986;4.458;2024-02-23T04:20:57;4.30;;;4.20;;
38487;SDS011;57384;51.986;4.458;2024-02-23T04:23:43;4.38;;;4.18;;
38487;SDS011;57384;51.986;4.458;2024-02-23T04:26:31;3.75;;;3.65;;
38487;SDS011;57384;51.986;4.458;2024-02-23T04:29:18;5.32;;;4.90;;
38487;SDS011;57384;51.986;4.458;2024-02-23T04:32:05;3.37;;;3.27;;
38487;SDS011;57384;51.986;4.458;2024-02-23T04:35:07;6.45;;;5.90;;
38487;SDS011;57384;51.986;4.458;2024-02-23T04:38:03;3.97;;;3.75;;
38487;SDS011;57384;51.986;4.458;2024-02-23T04:40:48;3.47;;;3.38;;
38487;SDS011;57384;51.986;4.458;2024-02-23T04:43:32;4.93;;;4.63;;
38487;SDS011;57384;51.986;4.458;2024-02-23T04:46:24;4.82;;;4.63;;
38487;SDS011;57384;51.986;4.458;2024-02-23T04:49:08;4.13;;;4.03;;
38487;SDS011;57384;51.986;4.458;2024-02-23T04:51:53;4.38;;;4.25;;
38487;SDS011;57384;51.986;4.458;2024-02-23T04:54:38;5.65;;;5.13;;
38487;SDS011;57384;51.986;4.458;2024-02-23T04:57:22;5.22;;;3.83;;
38487;SDS011;57384;51.986;4.458;2024-02-23T05:00:09;4.20;;;4.10;;
38487;SDS011;57384;51.986;4.458;2024-02-23T05:02:57;4.75;;;4.63;;
38487;SDS011;57384;51.986;4.458;2024-02-23T05:05:47;3.55;;;3.45;;
38487;SDS011;57384;51.986;4.458;2024-02-23T05:08:31;3.78;;;3.67;;
38487;SDS011;57384;51.986;4.458;2024-02-23T05:11:18;3.88;;;3.78;;
38487;SDS011;57384;51.986;4.458;2024-02-23T05:14:02;4.25;;;4.15;;
38487;SDS011;57384;51.986;4.458;2024-02-23T05:16:47;4.03;;;3.92;;
38487;SDS011;57384;51.986;4.458;2024-02-23T05:19:32;4.85;;;4.68;;
38487;SDS011;57384;51.986;4.458;2024-02-23T05:22:16;3.88;;;3.78;;
38487;SDS011;57384;51.986;4.458;2024-02-23T05:25:00;4.90;;;4.60;;
38487;SDS011;57384;51.986;4.458;2024-02-23T05:27:45;4.07;;;3.97;;
38487;SDS011;57384;51.986;4.458;2024-02-23T05:30:29;4.15;;;4.05;;
38487;SDS011;57384;51.986;4.458;2024-02-23T05:33:15;4.18;;;4.07;;
38487;SDS011;57384;51.986;4.458;2024-02-23T05:35:59;5.60;;;5.05;;
38487;SDS011;57384;51.986;4.458;2024-02-23T05:38:43;3.80;;;3.70;;
38487;SDS011;57384;51.986;4.458;2024-02-23T05:41:28;4.85;;;4.65;;
38487;SDS011;57384;51.986;4.458;2024-02-23T05:44:12;10.55;;;4.93;;
38487;SDS011;57384;51.986;4.458;2024-02-23T05:46:56;4.60;;;4.47;;
38487;SDS011;57384;51.986;4.458;2024-02-23T05:49:43;3.90;;;3.80;;
38487;SDS011;57384;51.986;4.458;2024-02-23T05:52:27;5.00;;;4.80;;
38487;SDS011;57384;51.986;4.458;2024-02-23T05:55:11;4.03;;;3.92;;
38487;SDS011;57384;51.986;4.458;2024-02-23T05:57:57;3.97;;;3.88;;
38487;SDS011;57384;51.986;4.458;2024-02-23T06:00:42;3.50;;;3.40;;
38487;SDS011;57384;51.986;4.458;2024-02-23T06:03:26;4.35;;;4.15;;
38487;SDS011;57384;51.986;4.458;2024-02-23T06:06:12;4.55;;;4.45;;
38487;SDS011;57384;51.986;4.458;2024-02-23T06:08:56;4.35;;;4.25;;
38487;SDS011;57384;51.986;4.458;2024-02-23T06:11:40;11.00;;;4.30;;
38487;SDS011;57384;51.986;4.458;2024-02-23T06:14:24;4.60;;;4.47;;
38487;SDS011;57384;51.986;4.458;2024-02-23T06:17:08;3.95;;;3.80;;
38487;SDS011;57384;51.986;4.458;2024-02-23T06:19:52;5.35;;;5.05;;
38487;SDS011;57384;51.986;4.458;2024-02-23T06:22:36;5.53;;;5.32;;
38487;SDS011;57384;51.986;4.458;2024-02-23T06:25:20;8.60;;;5.63;;
38487;SDS011;57384;51.986;4.458;2024-02-23T06:28:04;3.85;;;3.75;;
38487;SDS011;57384;51.986;4.458;2024-02-23T06:30:48;4.45;;;4.35;;
38487;SDS011;57384;51.986;4.458;2024-02-23T06:33:33;3.53;;;3.42;;
38487;SDS011;57384;51.986;4.458;2024-02-23T06:36:17;4.05;;;3.95;;
38487;SDS011;57384;51.986;4.458;2024-02-23T06:39:02;4.43;;;4.28;;
38487;SDS011;57384;51.986;4.458;2024-02-23T06:41:46;5.28;;;5.05;;
38487;SDS011;57384;51.986;4.458;2024-02-23T06:44:30;3.60;;;3.50;;
38487;SDS011;57384;51.986;4.458;2024-02-23T06:47:16;4.22;;;4.13;;
38487;SDS011;57384;51.986;4.458;2024-02-23T06:50:00;5.32;;;5.03;;
38487;SDS011;57384;51.986;4.458;2024-02-23T06:52:44;5.20;;;4.95;;
38487;SDS011;57384;51.986;4.458;2024-02-23T06:55:28;3.80;;;3.70;;
38487;SDS011;57384;51.986;4.458;2024-02-23T06:58:15;3.50;;;3.38;;
38487;SDS011;57384;51.986;4.458;2024-02-23T07:00:59;4.15;;;4.05;;
38487;SDS011;57384;51.986;4.458;2024-02-23T07:03:43;4.68;;;4.47;;
38487;SDS011;57384;51.986;4.458;2024-02-23T07:06:28;3.70;;;3.60;;
38487;SDS011;57384;51.986;4.458;2024-02-23T07:09:13;8.98;;;5.00;;
38487;SDS011;57384;51.986;4.458;2024-02-23T07:11:57;3.25;;;3.15;;
38487;SDS011;57384;51.986;4.458;2024-02-23T07:14:42;4.10;;;3.90;;
38487;SDS011;57384;51.986;4.458;2024-02-23T07:17:26;5.28;;;4.70;;
38487;SDS011;57384;51.986;4.458;2024-02-23T07:20:10;3.40;;;3.30;;
38487;SDS011;57384;51.986;4.458;2024-02-23T07:22:54;4.15;;;4.05;;
38487;SDS011;57384;51.986;4.458;2024-02-23T07:25:39;3.55;;;3.45;;
38487;SDS011;57384;51.986;4.458;2024-02-23T07:28:23;6.10;;;5.72;;
38487;SDS011;57384;51.986;4.458;2024-02-23T07:31:07;3.25;;;3.15;;
38487;SDS011;57384;51.986;4.458;2024-02-23T07:33:51;3.78;;;3.67;;
38487;SDS011;57384;51.986;4.458;2024-02-23T07:36:35;3.80;;;3.70;;
38487;SDS011;57384;51.986;4.458;2024-02-23T07:39:20;4.05;;;3.95;;
38487;SDS011;57384;51.986;4.458;2024-02-23T07:42:04;3.00;;;2.90;;
38487;SDS011;57384;51.986;4.458;2024-02-23T07:44:48;5.57;;;5.10;;
38487;SDS011;57384;51.986;4.458;2024-02-23T07:47:34;3.75;;;3.65;;
38487;SDS011;57384;51.986;4.458;2024-02-23T07:50:18;3.78;;;3.67;;
38487;SDS011;57384;51.986;4.458;2024-02-23T07:53:02;3.35;;;3.25;;
38487;SDS011;57384;51.986;4.458;2024-02-23T07:55:46;3.95;;;3.85;;
38487;SDS011;57384;51.986;4.458;2024-02-23T07:58:30;4.40;;;4.20;;
38487;SDS011;57384;51.986;4.458;2024-02-23T08:01:14;3.55;;;3.45;;
38487;SDS011;57384;51.986;4.458;2024-02-23T08:03:59;3.75;;;3.65;;
38487;SDS011;57384;51.986;4.458;2024-02-23T08:06:43;3.88;;;3.78;;
38487;SDS011;57384;51.986;4.458;2024-02-23T08:09:29;3.78;;;3.67;;
38487;SDS011;57384;51.986;4.458;2024-02-23T08:12:13;4.65;;;4.25;;
38487;SDS011;57384;51.986;4.458;2024-02-23T08:14:57;2.90;;;2.80;;
38487;SDS011;57384;51.986;4.458;2024-02-23T08:17:41;4.10;;;4.00;;
38487;SDS011;57384;51.986;4.458;2024-02-23T08:20:25;3.42;;;3.33;;
38487;SDS011;57384;51.986;4.458;2024-02-23T08:23:09;4.47;;;4.28;;
38487;SDS011;57384;51.986;4.458;2024-02-23T08:25:53;4.40;;;4.20;;
38487;SDS011;57384;51.986;4.458;2024-02-23T08:28:37;3.45;;;3.35;;
38487;SDS011;57384;51.986;4.458;2024-02-23T08:31:21;4.07;;;3.90;;
38487;SDS011;57384;51.986;4.458;2024-02-23T08:34:05;3.60;;;3.50;;
38487;SDS011;57384;51.986;4.458;2024-02-23T08:36:49;3.53;;;3.42;;
38487;SDS011;57384;51.986;4.458;2024-02-23T08:39:35;3.75;;;3.65;;
38487;SDS011;57384;51.986;4.458;2024-02-23T08:42:19;3.20;;;3.10;;
38487;SDS011;57384;51.986;4.458;2024-02-23T08:45:04;3.38;;;3.28;;
38487;SDS011;57384;51.986;4.458;2024-02-23T08:47:48;4.43;;;4.22;;
38487;SDS011;57384;51.986;4.458;2024-02-23T08:50:32;3.92;;;3.83;;
38487;SDS011;57384;51.986;4.458;2024-02-23T08:53:17;3.65;;;3.55;;
38487;SDS011;57384;51.986;4.458;2024-02-23T08:56:01;3.33;;;3.22;;
38487;SDS011;57384;51.986;4.458;2024-02-23T08:58:46;3.83;;;3.72;;
38487;SDS011;57384;51.986;4.458;2024-02-23T09:01:30;3.50;;;3.40;;
38487;SDS011;57384;51.986;4.458;2024-02-23T09:04:14;4.38;;;4.20;;
38487;SDS011;57384;51.986;4.458;2024-02-23T09:06:58;3.20;;;3.10;;
38487;SDS011;57384;51.986;4.458;2024-02-23T09:09:44;4.82;;;4.40;;
38487;SDS011;57384;51.986;4.458;2024-02-23T09:12:28;3.50;;;3.40;;
38487;SDS011;57384;51.986;4.458;2024-02-23T09:15:12;4.10;;;4.00;;
38487;SDS011;57384;51.986;4.458;2024-02-23T09:17:58;3.30;;;3.20;;
38487;SDS011;57384;51.986;4.458;2024-02-23T09:20:42;4.18;;;4.07;;
38487;SDS011;57384;51.986;4.458;2024-02-23T09:23:26;3.92;;;3.67;;
38487;SDS011;57384;51.986;4.458;2024-02-23T09:26:10;4.18;;;3.97;;
38487;SDS011;57384;51.986;4.458;2024-02-23T09:28:56;4.38;;;4.18;;
38487;SDS011;57384;51.986;4.458;2024-02-23T09:31:40;3.83;;;3.72;;
38487;SDS011;57384;51.986;4.458;2024-02-23T09:34:24;4.05;;;3.85;;
38487;SDS011;57384;51.986;4.458;2024-02-23T09:37:08;3.58;;;3.45;;
38487;SDS011;57384;51.986;4.458;2024-02-23T09:39:53;3.90;;;3.80;;
38487;SDS011;57384;51.986;4.458;2024-02-23T09:42:37;4.57;;;4.38;;
38487;SDS011;57384;51.986;4.458;2024-02-23T09:45:25;3.67;;;3.58;;
38487;SDS011;57384;51.986;4.458;2024-02-23T09:48:12;4.10;;;4.00;;
38487;SDS011;57384;51.986;4.458;2024-02-23T09:50:58;3.67;;;3.58;;
38487;SDS011;57384;51.986;4.458;2024-02-23T09:53:43;4.35;;;4.15;;
38487;SDS011;57384;51.986;4.458;2024-02-23T09:56:27;4.15;;;4.05;;
38487;SDS011;57384;51.986;4.458;2024-02-23T09:59:12;4.07;;;3.75;;
38487;SDS011;57384;51.986;4.458;2024-02-23T10:01:57;5.43;;;4.75;;
38487;SDS011;57384;51.986;4.458;2024-02-23T10:04:42;3.35;;;3.25;;
38487;SDS011;57384;51.986;4.458;2024-02-23T10:07:27;3.65;;;3.55;;
38487;SDS011;57384;51.986;4.458;2024-02-23T10:10:12;2.88;;;2.78;;
38487;SDS011;57384;51.986;4.458;2024-02-23T10:12:57;3.17;;;3.08;;
38487;SDS011;57384;51.986;4.458;2024-02-23T10:15:41;3.45;;;3.35;;
38487;SDS011;57384;51.986;4.458;2024-02-23T10:18:27;4.22;;;3.97;;
38487;SDS011;57384;51.986;4.458;2024-02-23T10:21:11;3.53;;;3.42;;
38487;SDS011;57384;51.986;4.458;2024-02-23T10:23:55;2.92;;;2.83;;
38487;SDS011;57384;51.986;4.458;2024-02-23T10:26:39;4.30;;;4.10;;
38487;SDS011;57384;51.986;4.458;2024-02-23T10:29:25;3.58;;;3.47;;
38487;SDS011;57384;51.986;4.458;2024-02-23T10:32:11;3.20;;;3.10;;
38487;SDS011;57384;51.986;4.458;2024-02-23T10:34:59;3.20;;;3.10;;
38487;SDS011;57384;51.986;4.458;2024-02-23T10:37:44;2.90;;;2.80;;
38487;SDS011;57384;51.986;4.458;2024-02-23T10:40:32;3.42;;;3.33;;
38487;SDS011;57384;51.986;4.458;2024-02-23T10:43:19;3.10;;;3.00;;
38487;SDS011;57384;51.986;4.458;2024-02-23T10:46:03;3.10;;;3.00;;
38487;SDS011;57384;51.986;4.458;2024-02-23T10:48:53;3.55;;;3.40;;
38487;SDS011;57384;51.986;4.458;2024-02-23T10:51:39;3.83;;;3.72;;
38487;SDS011;57384;51.986;4.458;2024-02-23T10:54:23;2.88;;;2.78;;
38487;SDS011;57384;51.986;4.458;2024-02-23T10:57:08;3.35;;;3.25;;
38487;SDS011;57384;51.986;4.458;2024-02-23T10:59:53;3.67;;;3.55;;
38487;SDS011;57384;51.986;4.458;2024-02-23T11:02:45;3.58;;;3.47;;
38487;SDS011;57384;51.986;4.458;2024-02-23T11:05:34;3.90;;;3.72;;
38487;SDS011;57384;51.986;4.458;2024-02-23T11:08:20;3.25;;;3.15;;
38487;SDS011;57384;51.986;4.458;2024-02-23T11:11:08;4.13;;;4.03;;
38487;SDS011;57384;51.986;4.458;2024-02-23T11:13:52;3.47;;;3.38;;
38487;SDS011;57384;51.986;4.458;2024-02-23T11:16:39;14.45;;;4.05;;
38487;SDS011;57384;51.986;4.458;2024-02-23T11:22:25;3.78;;;3.58;;
38487;SDS011;57384;51.986;4.458;2024-02-23T11:25:10;3.22;;;3.13;;
38487;SDS011;57384;51.986;4.458;2024-02-23T11:27:54;3.28;;;3.17;;
38487;SDS011;57384;51.986;4.458;2024-02-23T11:30:38;3.10;;;3.00;;
38487;SDS011;57384;51.986;4.458;2024-02-23T11:33:28;3.38;;;3.28;;
38487;SDS011;57384;51.986;4.458;2024-02-23T11:36:12;3.28;;;3.17;;
38487;SDS011;57384;51.986;4.458;2024-02-23T11:39:06;3.20;;;3.10;;
38487;SDS011;57384;51.986;4.458;2024-02-23T11:41:53;4.93;;;4.68;;
38487;SDS011;57384;51.986;4.458;2024-02-23T11:44:38;3.08;;;2.97;;
38487;SDS011;57384;51.986;4.458;2024-02-23T11:47:22;4.10;;;3.90;;
38487;SDS011;57384;51.986;4.458;2024-02-23T11:50:07;3.83;;;3.72;;
38487;SDS011;57384;51.986;4.458;2024-02-23T11:52:52;4.18;;;4.07;;
38487;SDS011;57384;51.986;4.458;2024-02-23T11:55:37;3.58;;;3.47;;
38487;SDS011;57384;51.986;4.458;2024-02-23T11:58:21;3.95;;;3.70;;
38487;SDS011;57384;51.986;4.458;2024-02-23T12:01:08;3.53;;;3.43;;
38487;SDS011;57384;51.986;4.458;2024-02-23T12:03:52;3.20;;;3.10;;
38487;SDS011;57384;51.986;4.458;2024-02-23T12:06:39;3.30;;;3.20;;
38487;SDS011;57384;51.986;4.458;2024-02-23T12:09:25;3.92;;;3.40;;
38487;SDS011;57384;51.986;4.458;2024-02-23T12:11:52;3.23;;;3.13;;
38487;SDS011;57384;51.986;4.458;2024-02-23T12:14:21;3.17;;;3.08;;
38487;SDS011;57384;51.986;4.458;2024-02-23T12:16:49;3.50;;;3.40;;
38487;SDS011;57384;51.986;4.458;2024-02-23T12:19:25;3.90;;;3.65;;
38487;SDS011;57384;51.986;4.458;2024-02-23T12:21:51;3.58;;;3.47;;
38487;SDS011;57384;51.986;4.458;2024-02-23T12:24:19;5.28;;;4.95;;
38487;SDS011;57384;51.986;4.458;2024-02-23T12:26:52;3.78;;;3.67;;
38487;SDS011;57384;51.986;4.458;2024-02-23T12:29:23;3.50;;;3.40;;
38487;SDS011;57384;51.986;4.458;2024-02-23T12:32:03;3.35;;;3.25;;
38487;SDS011;57384;51.986;4.458;2024-02-23T12:34:39;3.70;;;3.60;;
38487;SDS011;57384;51.986;4.458;2024-02-23T12:37:16;3.97;;;3.88;;
38487;SDS011;57384;51.986;4.458;2024-02-23T12:39:51;4.60;;;4.50;;
38487;SDS011;57384;51.986;4.458;2024-02-23T12:42:18;4.80;;;4.60;;
38487;SDS011;57384;51.986;4.458;2024-02-23T12:44:44;4.60;;;4.45;;
38487;SDS011;57384;51.986;4.458;2024-02-23T12:47:11;4.60;;;4.40;;
38487;SDS011;57384;51.986;4.458;2024-02-23T12:49:38;4.72;;;4.57;;
38487;SDS011;57384;51.986;4.458;2024-02-23T12:52:05;4.93;;;4.75;;
38487;SDS011;57384;51.986;4.458;2024-02-23T12:54:32;5.75;;;5.55;;
38487;SDS011;57384;51.986;4.458;2024-02-23T12:56:59;5.63;;;5.43;;
38487;SDS011;57384;51.986;4.458;2024-02-23T12:59:27;3.97;;;3.88;;
38487;SDS011;57384;51.986;4.458;2024-02-23T13:01:56;7.20;;;6.90;;
38487;SDS011;57384;51.986;4.458;2024-02-23T13:04:23;4.75;;;4.63;;
38487;SDS011;57384;51.986;4.458;2024-02-23T13:06:49;6.05;;;5.85;;
38487;SDS011;57384;51.986;4.458;2024-02-23T13:09:18;5.57;;;5.18;;
38487;SDS011;57384;51.986;4.458;2024-02-23T13:11:50;5.40;;;5.20;;
38487;SDS011;57384;51.986;4.458;2024-02-23T13:14:30;7.30;;;7.10;;
38487;SDS011;57384;51.986;4.458;2024-02-23T13:17:05;7.82;;;7.63;;
38487;SDS011;57384;51.986;4.458;2024-02-23T13:22:24;7.57;;;7.38;;
38487;SDS011;57384;51.986;4.458;2024-02-23T13:24:57;7.43;;;7.22;;
38487;SDS011;57384;51.986;4.458;2024-02-23T13:27:30;7.28;;;7.07;;
38487;SDS011;57384;51.986;4.458;2024-02-23T13:29:58;7.90;;;7.70;;
38487;SDS011;57384;51.986;4.458;2024-02-23T13:32:27;10.07;;;9.20;;
38487;SDS011;57384;51.986;4.458;2024-02-23T13:35:10;8.07;;;7.88;;
38487;SDS011;57384;51.986;4.458;2024-02-23T13:37:45;7.15;;;6.95;;
38487;SDS011;57384;51.986;4.458;2024-02-23T13:43:25;7.90;;;7.70;;
38487;SDS011;57384;51.986;4.458;2024-02-23T13:45:56;8.23;;;7.93;;
38487;SDS011;57384;51.986;4.458;2024-02-23T13:48:32;7.85;;;7.65;;
38487;SDS011;57384;51.986;4.458;2024-02-23T13:51:07;6.78;;;6.57;;
38487;SDS011;57384;51.986;4.458;2024-02-23T13:53:36;7.20;;;7.00;;
38487;SDS011;57384;51.986;4.458;2024-02-23T13:56:10;7.75;;;7.55;;
38487;SDS011;57384;51.986;4.458;2024-02-23T13:58:37;6.78;;;6.57;;
38487;SDS011;57384;51.986;4.458;2024-02-23T14:01:04;7.27;;;7.07;;
38487;SDS011;57384;51.986;4.458;2024-02-23T14:03:37;7.43;;;7.22;;
38487;SDS011;57384;51.986;4.458;2024-02-23T14:06:09;8.35;;;8.15;;
38487;SDS011;57384;51.986;4.458;2024-02-23T14:08:39;8.70;;;8.40;;
38487;SDS011;57384;51.986;4.458;2024-02-23T14:11:06;6.88;;;6.68;;
38487;SDS011;57384;51.986;4.458;2024-02-23T14:16:00;9.87;;;9.53;;
38487;SDS011;57384;51.986;4.458;2024-02-23T14:18:29;7.72;;;7.53;;
38487;SDS011;57384;51.986;4.458;2024-02-23T14:20:55;6.90;;;6.70;;
38487;SDS011;57384;51.986;4.458;2024-02-23T14:23:22;6.40;;;6.20;;
38487;SDS011;57384;51.986;4.458;2024-02-23T14:25:48;6.00;;;5.80;;
38487;SDS011;57384;51.986;4.458;2024-02-23T14:30:49;6.78;;;6.57;;
38487;SDS011;57384;51.986;4.458;2024-02-23T14:33:15;9.07;;;8.77;;
38487;SDS011;57384;51.986;4.458;2024-02-23T14:35:42;7.90;;;7.70;;
38487;SDS011;57384;51.986;4.458;2024-02-23T14:40:38;7.47;;;7.28;;
38487;SDS011;57384;51.986;4.458;2024-02-23T14:43:06;11.95;;;7.38;;
38487;SDS011;57384;51.986;4.458;2024-02-23T14:45:36;15.68;;;7.55;;
38487;SDS011;57384;51.986;4.458;2024-02-23T14:48:03;6.68;;;6.47;;
38487;SDS011;57384;51.986;4.458;2024-02-23T14:50:35;7.10;;;6.90;;
38487;SDS011;57384;51.986;4.458;2024-02-23T14:53:06;8.55;;;8.18;;
38487;SDS011;57384;51.986;4.458;2024-02-23T14:55:35;7.13;;;6.93;;
38487;SDS011;57384;51.986;4.458;2024-02-23T14:58:01;8.85;;;8.60;;
38487;SDS011;57384;51.986;4.458;2024-02-23T15:00:34;6.80;;;6.60;;
38487;SDS011;57384;51.986;4.458;2024-02-23T15:03:01;7.28;;;7.07;;
38487;SDS011;57384;51.986;4.458;2024-02-23T15:05:29;7.72;;;7.53;;
38487;SDS011;57384;51.986;4.458;2024-02-23T15:10:26;9.23;;;8.93;;
38487;SDS011;57384;51.986;4.458;2024-02-23T15:12:52;8.10;;;7.85;;
38487;SDS011;57384;51.986;4.458;2024-02-23T15:15:19;6.70;;;6.50;;
38487;SDS011;57384;51.986;4.458;2024-02-23T15:17:47;6.35;;;6.15;;
38487;SDS011;57384;51.986;4.458;2024-02-23T15:20:14;4.05;;;3.95;;
38487;SDS011;57384;51.986;4.458;2024-02-23T15:22:40;4.20;;;4.10;;
38487;SDS011;57384;51.986;4.458;2024-02-23T15:25:15;4.47;;;4.38;;
38487;SDS011;57384;51.986;4.458;2024-02-23T15:30:09;7.60;;;7.40;;
38487;SDS011;57384;51.986;4.458;2024-02-23T15:32:36;6.10;;;5.90;;
38487;SDS011;57384;51.986;4.458;2024-02-23T15:35:09;5.55;;;5.35;;
38487;SDS011;57384;51.986;4.458;2024-02-23T15:37:35;5.28;;;4.95;;
38487;SDS011;57384;51.986;4.458;2024-02-23T15:42:31;9.35;;;9.05;;
38487;SDS011;57384;51.986;4.458;2024-02-23T15:44:58;6.45;;;6.25;;
38487;SDS011;57384;51.986;4.458;2024-02-23T15:47:25;11.98;;;6.90;;
38487;SDS011;57384;51.986;4.458;2024-02-23T15:49:53;6.50;;;6.25;;
38487;SDS011;57384;51.986;4.458;2024-02-23T15:52:20;5.30;;;5.10;;
38487;SDS011;57384;51.986;4.458;2024-02-23T15:54:46;6.17;;;5.97;;
38487;SDS011;57384;51.986;4.458;2024-02-23T15:57:22;5.15;;;4.95;;
38487;SDS011;57384;51.986;4.458;2024-02-23T15:59:49;5.82;;;5.63;;
38487;SDS011;57384;51.986;4.458;2024-02-23T16:02:16;4.68;;;4.55;;
38487;SDS011;57384;51.986;4.458;2024-02-23T16:04:43;7.90;;;7.28;;
38487;SDS011;57384;51.986;4.458;2024-02-23T16:07:11;4.43;;;4.32;;
38487;SDS011;57384;51.986;4.458;2024-02-23T16:09:38;3.75;;;3.65;;
38487;SDS011;57384;51.986;4.458;2024-02-23T16:12:18;5.65;;;5.45;;
38487;SDS011;57384;51.986;4.458;2024-02-23T16:14:53;4.13;;;4.03;;
38487;SDS011;57384;51.986;4.458;2024-02-23T16:17:20;3.30;;;3.20;;
38487;SDS011;57384;51.986;4.458;2024-02-23T16:19:47;4.38;;;4.28;;
38487;SDS011;57384;51.986;4.458;2024-02-23T16:22:14;4.32;;;4.22;;
38487;SDS011;57384;51.986;4.458;2024-02-23T16:24:42;4.85;;;4.68;;
38487;SDS011;57384;51.986;4.458;2024-02-23T16:27:16;3.80;;;3.70;;
38487;SDS011;57384;51.986;4.458;2024-02-23T16:29:49;4.45;;;4.35;;
38487;SDS011;57384;51.986;4.458;2024-02-23T16:32:24;6.70;;;6.50;;
38487;SDS011;57384;51.986;4.458;2024-02-23T16:34:55;6.15;;;5.95;;
38487;SDS011;57384;51.986;4.458;2024-02-23T16:37:22;5.60;;;5.40;;
38487;SDS011;57384;51.986;4.458;2024-02-23T16:39:49;5.15;;;4.95;;
38487;SDS011;57384;51.986;4.458;2024-02-23T16:42:16;5.20;;;5.00;;